sensor_id;sensor_type;location;lat;lon;timestamp;P1;durP1;ratioP1;P2;durP2;ratioP2
79597;SDS011;69081;53.572;9.970;2023-09-12T00:00:37;7.90;;;6.55;;
79597;SDS011;69081;53.572;9.970;2023-09-12T00:03:05;11.82;;;7.53;;
79597;SDS011;69081;53.572;9.970;2023-09-12T00:05:32;11.00;;;8.70;;
79597;SDS011;69081;53.572;9.970;2023-09-12T00:08:01;11.70;;;7.82;;
79597;SDS011;69081;53.572;9.970;2023-09-12T00:10:30;9.25;;;8.05;;
79597;SDS011;69081;53.572;9.970;2023-09-12T00:12:58;10.18;;;8.40;;
79597;SDS011;69081;53.572;9.970;2023-09-12T00:15:29;9.23;;;7.97;;
79597;SDS011;69081;53.572;9.970;2023-09-12T00:17:58;10.98;;;7.53;;
79597;SDS011;69081;53.572;9.970;2023-09-12T00:20:26;10.68;;;7.97;;
79597;SDS011;69081;53.572;9.970;2023-09-12T00:22:54;9.20;;;7.97;;
79597;SDS011;69081;53.572;9.970;2023-09-12T00:25:22;11.15;;;8.18;;
79597;SDS011;69081;53.572;9.970;2023-09-12T00:27:50;9.73;;;7.72;;
79597;SDS011;69081;53.572;9.970;2023-09-12T00:30:18;8.32;;;6.85;;
79597;SDS011;69081;53.572;9.970;2023-09-12T00:32:47;7.97;;;7.07;;
79597;SDS011;69081;53.572;9.970;2023-09-12T00:35:16;11.57;;;8.45;;
79597;SDS011;69081;53.572;9.970;2023-09-12T00:37:44;10.25;;;8.25;;
79597;SDS011;69081;53.572;9.970;2023-09-12T00:40:12;8.75;;;7.55;;
79597;SDS011;69081;53.572;9.970;2023-09-12T00:42:40;9.95;;;7.93;;
79597;SDS011;69081;53.572;9.970;2023-09-12T00:45:09;10.45;;;7.97;;
79597;SDS011;69081;53.572;9.970;2023-09-12T00:50:05;9.57;;;7.43;;
79597;SDS011;69081;53.572;9.970;2023-09-12T00:52:35;11.60;;;7.82;;
79597;SDS011;69081;53.572;9.970;2023-09-12T00:55:04;10.27;;;8.30;;
79597;SDS011;69081;53.572;9.970;2023-09-12T00:57:33;13.73;;;8.23;;
79597;SDS011;69081;53.572;9.970;2023-09-12T01:00:02;9.73;;;7.85;;
79597;SDS011;69081;53.572;9.970;2023-09-12T01:02:37;9.90;;;7.97;;
79597;SDS011;69081;53.572;9.970;2023-09-12T01:05:06;11.40;;;8.32;;
79597;SDS011;69081;53.572;9.970;2023-09-12T01:07:36;9.63;;;7.93;;
79597;SDS011;69081;53.572;9.970;2023-09-12T01:10:05;9.93;;;8.40;;
79597;SDS011;69081;53.572;9.970;2023-09-12T01:12:34;14.80;;;9.85;;
79597;SDS011;69081;53.572;9.970;2023-09-12T01:15:03;10.98;;;8.70;;
79597;SDS011;69081;53.572;9.970;2023-09-12T01:17:40;10.75;;;8.75;;
79597;SDS011;69081;53.572;9.970;2023-09-12T01:20:10;10.75;;;7.75;;
79597;SDS011;69081;53.572;9.970;2023-09-12T01:28:03;9.30;;;8.13;;
79597;SDS011;69081;53.572;9.970;2023-09-12T01:30:33;9.70;;;8.13;;
79597;SDS011;69081;53.572;9.970;2023-09-12T01:33:03;10.02;;;8.60;;
79597;SDS011;69081;53.572;9.970;2023-09-12T01:35:31;9.77;;;8.68;;
79597;SDS011;69081;53.572;9.970;2023-09-12T01:37:59;10.35;;;7.88;;
79597;SDS011;69081;53.572;9.970;2023-09-12T01:40:30;9.02;;;7.88;;
79597;SDS011;69081;53.572;9.970;2023-09-12T01:43:03;11.07;;;8.02;;
79597;SDS011;69081;53.572;9.970;2023-09-12T01:45:32;11.80;;;9.43;;
79597;SDS011;69081;53.572;9.970;2023-09-12T01:48:01;9.95;;;8.77;;
79597;SDS011;69081;53.572;9.970;2023-09-12T01:50:31;11.00;;;8.82;;
79597;SDS011;69081;53.572;9.970;2023-09-12T01:53:00;12.95;;;9.07;;
79597;SDS011;69081;53.572;9.970;2023-09-12T01:55:29;10.27;;;8.32;;
79597;SDS011;69081;53.572;9.970;2023-09-12T01:57:58;8.88;;;7.68;;
79597;SDS011;69081;53.572;9.970;2023-09-12T02:00:27;9.98;;;8.48;;
79597;SDS011;69081;53.572;9.970;2023-09-12T02:02:56;11.15;;;8.90;;
79597;SDS011;69081;53.572;9.970;2023-09-12T02:05:24;9.93;;;8.35;;
79597;SDS011;69081;53.572;9.970;2023-09-12T02:07:52;11.10;;;9.10;;
79597;SDS011;69081;53.572;9.970;2023-09-12T02:10:20;8.98;;;7.72;;
79597;SDS011;69081;53.572;9.970;2023-09-12T02:12:48;10.45;;;8.80;;
79597;SDS011;69081;53.572;9.970;2023-09-12T02:15:16;12.38;;;9.65;;
79597;SDS011;69081;53.572;9.970;2023-09-12T02:17:46;13.27;;;8.40;;
79597;SDS011;69081;53.572;9.970;2023-09-12T02:20:17;10.23;;;8.57;;
79597;SDS011;69081;53.572;9.970;2023-09-12T02:22:45;11.43;;;9.23;;
79597;SDS011;69081;53.572;9.970;2023-09-12T02:25:13;10.05;;;8.60;;
79597;SDS011;69081;53.572;9.970;2023-09-12T02:27:41;10.90;;;9.00;;
79597;SDS011;69081;53.572;9.970;2023-09-12T02:30:09;11.38;;;8.15;;
79597;SDS011;69081;53.572;9.970;2023-09-12T02:32:38;13.90;;;9.52;;
79597;SDS011;69081;53.572;9.970;2023-09-12T02:35:07;11.40;;;8.30;;
79597;SDS011;69081;53.572;9.970;2023-09-12T02:37:35;11.77;;;8.98;;
79597;SDS011;69081;53.572;9.970;2023-09-12T02:40:04;11.07;;;8.60;;
79597;SDS011;69081;53.572;9.970;2023-09-12T02:42:33;11.82;;;9.32;;
79597;SDS011;69081;53.572;9.970;2023-09-12T02:45:01;11.88;;;8.55;;
79597;SDS011;69081;53.572;9.970;2023-09-12T02:47:29;9.80;;;8.20;;
79597;SDS011;69081;53.572;9.970;2023-09-12T02:49:57;10.77;;;8.77;;
79597;SDS011;69081;53.572;9.970;2023-09-12T02:52:27;12.07;;;9.18;;
79597;SDS011;69081;53.572;9.970;2023-09-12T02:54:55;10.65;;;8.73;;
79597;SDS011;69081;53.572;9.970;2023-09-12T02:57:23;10.45;;;8.65;;
79597;SDS011;69081;53.572;9.970;2023-09-12T02:59:51;11.00;;;8.77;;
79597;SDS011;69081;53.572;9.970;2023-09-12T03:02:19;11.25;;;8.90;;
79597;SDS011;69081;53.572;9.970;2023-09-12T03:04:47;11.10;;;8.63;;
79597;SDS011;69081;53.572;9.970;2023-09-12T03:07:15;10.25;;;8.57;;
79597;SDS011;69081;53.572;9.970;2023-09-12T03:09:44;11.57;;;8.65;;
79597;SDS011;69081;53.572;9.970;2023-09-12T03:12:16;13.48;;;10.18;;
79597;SDS011;69081;53.572;9.970;2023-09-12T03:14:44;11.15;;;9.40;;
79597;SDS011;69081;53.572;9.970;2023-09-12T03:17:12;11.20;;;9.63;;
79597;SDS011;69081;53.572;9.970;2023-09-12T03:19:40;10.25;;;8.45;;
79597;SDS011;69081;53.572;9.970;2023-09-12T03:22:08;11.73;;;9.23;;
79597;SDS011;69081;53.572;9.970;2023-09-12T03:24:36;11.73;;;8.93;;
79597;SDS011;69081;53.572;9.970;2023-09-12T03:27:06;10.25;;;9.00;;
79597;SDS011;69081;53.572;9.970;2023-09-12T03:29:34;12.02;;;8.88;;
79597;SDS011;69081;53.572;9.970;2023-09-12T03:32:02;11.35;;;8.88;;
79597;SDS011;69081;53.572;9.970;2023-09-12T03:34:31;11.43;;;8.98;;
79597;SDS011;69081;53.572;9.970;2023-09-12T03:36:59;10.82;;;8.32;;
79597;SDS011;69081;53.572;9.970;2023-09-12T03:39:27;10.13;;;8.77;;
79597;SDS011;69081;53.572;9.970;2023-09-12T03:41:56;10.05;;;8.65;;
79597;SDS011;69081;53.572;9.970;2023-09-12T03:44:25;11.02;;;9.27;;
79597;SDS011;69081;53.572;9.970;2023-09-12T03:46:53;9.90;;;8.55;;
79597;SDS011;69081;53.572;9.970;2023-09-12T03:49:22;11.15;;;8.95;;
79597;SDS011;69081;53.572;9.970;2023-09-12T03:51:50;12.68;;;8.88;;
79597;SDS011;69081;53.572;9.970;2023-09-12T03:54:18;12.20;;;9.70;;
79597;SDS011;69081;53.572;9.970;2023-09-12T03:56:46;12.48;;;9.27;;
79597;SDS011;69081;53.572;9.970;2023-09-12T03:59:14;14.30;;;8.90;;
79597;SDS011;69081;53.572;9.970;2023-09-12T04:01:43;10.77;;;8.98;;
79597;SDS011;69081;53.572;9.970;2023-09-12T04:04:12;11.32;;;9.07;;
79597;SDS011;69081;53.572;9.970;2023-09-12T04:06:40;11.98;;;8.88;;
79597;SDS011;69081;53.572;9.970;2023-09-12T04:09:08;10.90;;;8.90;;
79597;SDS011;69081;53.572;9.970;2023-09-12T04:11:36;11.32;;;9.25;;
79597;SDS011;69081;53.572;9.970;2023-09-12T04:14:12;12.00;;;9.57;;
79597;SDS011;69081;53.572;9.970;2023-09-12T04:16:41;11.38;;;8.25;;
79597;SDS011;69081;53.572;9.970;2023-09-12T04:19:10;12.15;;;9.75;;
79597;SDS011;69081;53.572;9.970;2023-09-12T04:21:38;12.13;;;8.70;;
79597;SDS011;69081;53.572;9.970;2023-09-12T04:24:07;11.77;;;8.48;;
79597;SDS011;69081;53.572;9.970;2023-09-12T04:26:35;11.20;;;8.90;;
79597;SDS011;69081;53.572;9.970;2023-09-12T04:29:03;11.15;;;8.65;;
79597;SDS011;69081;53.572;9.970;2023-09-12T04:31:31;11.65;;;8.80;;
79597;SDS011;69081;53.572;9.970;2023-09-12T04:34:00;11.60;;;8.52;;
79597;SDS011;69081;53.572;9.970;2023-09-12T04:36:29;12.38;;;9.27;;
79597;SDS011;69081;53.572;9.970;2023-09-12T04:38:57;10.68;;;8.52;;
79597;SDS011;69081;53.572;9.970;2023-09-12T04:41:25;10.70;;;8.75;;
79597;SDS011;69081;53.572;9.970;2023-09-12T04:43:53;11.32;;;8.18;;
79597;SDS011;69081;53.572;9.970;2023-09-12T04:46:21;11.40;;;9.50;;
79597;SDS011;69081;53.572;9.970;2023-09-12T04:48:49;10.93;;;9.30;;
79597;SDS011;69081;53.572;9.970;2023-09-12T04:51:17;11.05;;;9.05;;
79597;SDS011;69081;53.572;9.970;2023-09-12T04:53:47;12.00;;;9.60;;
79597;SDS011;69081;53.572;9.970;2023-09-12T04:56:18;10.18;;;8.45;;
79597;SDS011;69081;53.572;9.970;2023-09-12T04:58:46;11.60;;;9.25;;
79597;SDS011;69081;53.572;9.970;2023-09-12T05:01:14;11.30;;;8.88;;
79597;SDS011;69081;53.572;9.970;2023-09-12T05:03:43;13.07;;;10.23;;
79597;SDS011;69081;53.572;9.970;2023-09-12T05:08:39;13.02;;;9.80;;
79597;SDS011;69081;53.572;9.970;2023-09-12T05:11:09;10.82;;;8.95;;
79597;SDS011;69081;53.572;9.970;2023-09-12T05:13:37;11.60;;;9.25;;
79597;SDS011;69081;53.572;9.970;2023-09-12T05:16:05;11.43;;;9.15;;
79597;SDS011;69081;53.572;9.970;2023-09-12T05:18:33;10.85;;;9.18;;
79597;SDS011;69081;53.572;9.970;2023-09-12T05:21:02;11.80;;;9.45;;
79597;SDS011;69081;53.572;9.970;2023-09-12T05:23:30;11.88;;;9.48;;
79597;SDS011;69081;53.572;9.970;2023-09-12T05:25:58;10.85;;;9.45;;
79597;SDS011;69081;53.572;9.970;2023-09-12T05:28:28;11.35;;;9.20;;
79597;SDS011;69081;53.572;9.970;2023-09-12T05:30:56;12.93;;;9.52;;
79597;SDS011;69081;53.572;9.970;2023-09-12T05:33:24;12.50;;;8.90;;
79597;SDS011;69081;53.572;9.970;2023-09-12T05:35:52;12.70;;;9.60;;
79597;SDS011;69081;53.572;9.970;2023-09-12T05:38:20;13.90;;;10.20;;
79597;SDS011;69081;53.572;9.970;2023-09-12T05:40:49;11.70;;;8.98;;
79597;SDS011;69081;53.572;9.970;2023-09-12T05:43:17;10.48;;;8.63;;
79597;SDS011;69081;53.572;9.970;2023-09-12T05:45:46;11.18;;;8.43;;
79597;SDS011;69081;53.572;9.970;2023-09-12T05:48:15;11.05;;;9.00;;
79597;SDS011;69081;53.572;9.970;2023-09-12T05:50:43;11.77;;;9.30;;
79597;SDS011;69081;53.572;9.970;2023-09-12T05:53:11;12.73;;;8.80;;
79597;SDS011;69081;53.572;9.970;2023-09-12T05:55:39;12.32;;;10.05;;
79597;SDS011;69081;53.572;9.970;2023-09-12T05:58:07;11.32;;;8.88;;
79597;SDS011;69081;53.572;9.970;2023-09-12T06:00:35;10.27;;;8.07;;
79597;SDS011;69081;53.572;9.970;2023-09-12T06:03:05;12.57;;;8.85;;
79597;SDS011;69081;53.572;9.970;2023-09-12T06:05:34;9.70;;;8.27;;
79597;SDS011;69081;53.572;9.970;2023-09-12T06:08:03;10.85;;;9.00;;
79597;SDS011;69081;53.572;9.970;2023-09-12T06:10:31;12.45;;;9.32;;
79597;SDS011;69081;53.572;9.970;2023-09-12T06:13:00;10.68;;;8.63;;
79597;SDS011;69081;53.572;9.970;2023-09-12T06:15:29;11.73;;;8.82;;
79597;SDS011;69081;53.572;9.970;2023-09-12T06:17:57;11.48;;;9.52;;
79597;SDS011;69081;53.572;9.970;2023-09-12T06:20:26;10.35;;;8.68;;
79597;SDS011;69081;53.572;9.970;2023-09-12T06:22:55;14.20;;;8.63;;
79597;SDS011;69081;53.572;9.970;2023-09-12T06:25:23;11.60;;;8.48;;
79597;SDS011;69081;53.572;9.970;2023-09-12T06:27:51;11.13;;;8.65;;
79597;SDS011;69081;53.572;9.970;2023-09-12T06:30:19;10.80;;;8.00;;
79597;SDS011;69081;53.572;9.970;2023-09-12T06:32:47;10.73;;;9.00;;
79597;SDS011;69081;53.572;9.970;2023-09-12T06:35:16;9.70;;;8.10;;
79597;SDS011;69081;53.572;9.970;2023-09-12T06:37:45;11.40;;;8.65;;
79597;SDS011;69081;53.572;9.970;2023-09-12T06:40:13;10.70;;;8.48;;
79597;SDS011;69081;53.572;9.970;2023-09-12T06:42:41;10.80;;;8.68;;
79597;SDS011;69081;53.572;9.970;2023-09-12T06:45:10;11.80;;;8.85;;
79597;SDS011;69081;53.572;9.970;2023-09-12T06:47:38;10.65;;;8.40;;
79597;SDS011;69081;53.572;9.970;2023-09-12T06:50:06;10.52;;;8.65;;
79597;SDS011;69081;53.572;9.970;2023-09-12T06:52:40;11.50;;;8.40;;
79597;SDS011;69081;53.572;9.970;2023-09-12T06:55:10;10.70;;;8.95;;
79597;SDS011;69081;53.572;9.970;2023-09-12T06:57:38;9.45;;;8.13;;
79597;SDS011;69081;53.572;9.970;2023-09-12T07:00:07;10.55;;;8.20;;
79597;SDS011;69081;53.572;9.970;2023-09-12T07:02:36;11.07;;;8.60;;
79597;SDS011;69081;53.572;9.970;2023-09-12T07:05:05;9.45;;;7.90;;
79597;SDS011;69081;53.572;9.970;2023-09-12T07:07:33;10.50;;;8.25;;
79597;SDS011;69081;53.572;9.970;2023-09-12T07:10:01;9.93;;;8.18;;
79597;SDS011;69081;53.572;9.970;2023-09-12T07:12:50;10.45;;;8.27;;
79597;SDS011;69081;53.572;9.970;2023-09-12T07:15:19;10.60;;;8.80;;
79597;SDS011;69081;53.572;9.970;2023-09-12T07:17:48;10.13;;;8.00;;
79597;SDS011;69081;53.572;9.970;2023-09-12T07:20:16;8.88;;;7.63;;
79597;SDS011;69081;53.572;9.970;2023-09-12T07:22:46;9.88;;;8.45;;
79597;SDS011;69081;53.572;9.970;2023-09-12T07:25:14;11.00;;;7.95;;
79597;SDS011;69081;53.572;9.970;2023-09-12T07:27:43;9.35;;;8.20;;
79597;SDS011;69081;53.572;9.970;2023-09-12T07:30:13;10.18;;;8.77;;
79597;SDS011;69081;53.572;9.970;2023-09-12T07:32:41;11.20;;;8.90;;
79597;SDS011;69081;53.572;9.970;2023-09-12T07:35:09;12.13;;;9.20;;
79597;SDS011;69081;53.572;9.970;2023-09-12T07:37:37;13.60;;;9.88;;
79597;SDS011;69081;53.572;9.970;2023-09-12T07:40:06;12.98;;;10.05;;
79597;SDS011;69081;53.572;9.970;2023-09-12T07:42:36;13.88;;;10.75;;
79597;SDS011;69081;53.572;9.970;2023-09-12T07:45:05;14.38;;;11.23;;
79597;SDS011;69081;53.572;9.970;2023-09-12T07:47:35;14.20;;;11.23;;
79597;SDS011;69081;53.572;9.970;2023-09-12T07:50:04;15.13;;;11.98;;
79597;SDS011;69081;53.572;9.970;2023-09-12T07:52:33;16.25;;;12.73;;
79597;SDS011;69081;53.572;9.970;2023-09-12T07:55:02;16.08;;;11.63;;
79597;SDS011;69081;53.572;9.970;2023-09-12T07:57:30;14.90;;;11.85;;
79597;SDS011;69081;53.572;9.970;2023-09-12T08:00:00;16.52;;;12.05;;
79597;SDS011;69081;53.572;9.970;2023-09-12T08:02:28;16.45;;;11.98;;
79597;SDS011;69081;53.572;9.970;2023-09-12T08:04:58;15.35;;;10.98;;
79597;SDS011;69081;53.572;9.970;2023-09-12T08:07:26;17.35;;;11.80;;
79597;SDS011;69081;53.572;9.970;2023-09-12T08:09:55;15.30;;;11.73;;
79597;SDS011;69081;53.572;9.970;2023-09-12T08:12:24;15.38;;;11.63;;
79597;SDS011;69081;53.572;9.970;2023-09-12T08:14:53;15.43;;;11.90;;
79597;SDS011;69081;53.572;9.970;2023-09-12T08:19:49;16.05;;;11.02;;
79597;SDS011;69081;53.572;9.970;2023-09-12T08:22:19;18.55;;;13.15;;
79597;SDS011;69081;53.572;9.970;2023-09-12T08:24:47;16.20;;;12.25;;
79597;SDS011;69081;53.572;9.970;2023-09-12T08:27:15;16.33;;;12.02;;
79597;SDS011;69081;53.572;9.970;2023-09-12T08:29:43;13.75;;;11.25;;
79597;SDS011;69081;53.572;9.970;2023-09-12T08:32:13;13.40;;;10.57;;
79597;SDS011;69081;53.572;9.970;2023-09-12T08:34:41;14.43;;;12.07;;
79597;SDS011;69081;53.572;9.970;2023-09-12T08:37:10;14.68;;;10.65;;
79597;SDS011;69081;53.572;9.970;2023-09-12T08:39:42;13.55;;;10.25;;
79597;SDS011;69081;53.572;9.970;2023-09-12T08:42:12;13.32;;;11.18;;
79597;SDS011;69081;53.572;9.970;2023-09-12T08:44:41;14.35;;;10.35;;
79597;SDS011;69081;53.572;9.970;2023-09-12T08:47:09;15.45;;;11.40;;
79597;SDS011;69081;53.572;9.970;2023-09-12T08:49:39;14.02;;;11.60;;
79597;SDS011;69081;53.572;9.970;2023-09-12T08:52:09;14.63;;;10.73;;
79597;SDS011;69081;53.572;9.970;2023-09-12T08:57:06;15.43;;;11.82;;
79597;SDS011;69081;53.572;9.970;2023-09-12T08:59:35;14.55;;;11.90;;
79597;SDS011;69081;53.572;9.970;2023-09-12T09:02:03;17.13;;;13.32;;
79597;SDS011;69081;53.572;9.970;2023-09-12T09:04:33;13.38;;;11.07;;
79597;SDS011;69081;53.572;9.970;2023-09-12T09:07:02;14.02;;;11.18;;
79597;SDS011;69081;53.572;9.970;2023-09-12T09:09:31;14.75;;;11.35;;
79597;SDS011;69081;53.572;9.970;2023-09-12T09:11:59;15.00;;;11.13;;
79597;SDS011;69081;53.572;9.970;2023-09-12T09:14:30;15.02;;;12.38;;
79597;SDS011;69081;53.572;9.970;2023-09-12T09:16:58;18.05;;;11.95;;
79597;SDS011;69081;53.572;9.970;2023-09-12T09:19:39;13.25;;;10.88;;
79597;SDS011;69081;53.572;9.970;2023-09-12T09:22:08;14.95;;;10.48;;
79597;SDS011;69081;53.572;9.970;2023-09-12T09:24:37;13.35;;;10.32;;
79597;SDS011;69081;53.572;9.970;2023-09-12T09:27:05;14.75;;;11.68;;
79597;SDS011;69081;53.572;9.970;2023-09-12T09:29:46;13.50;;;10.68;;
79597;SDS011;69081;53.572;9.970;2023-09-12T09:32:18;14.82;;;10.25;;
79597;SDS011;69081;53.572;9.970;2023-09-12T09:34:48;15.85;;;10.57;;
79597;SDS011;69081;53.572;9.970;2023-09-12T09:37:17;15.07;;;10.98;;
79597;SDS011;69081;53.572;9.970;2023-09-12T09:39:46;17.02;;;11.07;;
79597;SDS011;69081;53.572;9.970;2023-09-12T09:42:18;16.88;;;10.85;;
79597;SDS011;69081;53.572;9.970;2023-09-12T09:44:48;15.00;;;11.73;;
79597;SDS011;69081;53.572;9.970;2023-09-12T09:47:17;13.80;;;10.48;;
79597;SDS011;69081;53.572;9.970;2023-09-12T09:52:14;20.83;;;11.77;;
79597;SDS011;69081;53.572;9.970;2023-09-12T09:54:43;14.00;;;10.45;;
79597;SDS011;69081;53.572;9.970;2023-09-12T09:57:12;13.35;;;10.48;;
79597;SDS011;69081;53.572;9.970;2023-09-12T09:59:40;12.60;;;10.45;;
79597;SDS011;69081;53.572;9.970;2023-09-12T10:02:11;13.07;;;10.40;;
79597;SDS011;69081;53.572;9.970;2023-09-12T10:04:45;12.30;;;10.68;;
79597;SDS011;69081;53.572;9.970;2023-09-12T10:07:25;14.35;;;10.68;;
79597;SDS011;69081;53.572;9.970;2023-09-12T10:09:53;13.90;;;11.02;;
79597;SDS011;69081;53.572;9.970;2023-09-12T10:12:21;13.43;;;10.65;;
79597;SDS011;69081;53.572;9.970;2023-09-12T10:14:51;12.05;;;9.32;;
79597;SDS011;69081;53.572;9.970;2023-09-12T10:17:20;11.35;;;9.50;;
79597;SDS011;69081;53.572;9.970;2023-09-12T10:19:54;12.57;;;10.10;;
79597;SDS011;69081;53.572;9.970;2023-09-12T10:22:24;13.10;;;9.07;;
79597;SDS011;69081;53.572;9.970;2023-09-12T10:24:55;11.68;;;9.23;;
79597;SDS011;69081;53.572;9.970;2023-09-12T10:27:24;12.43;;;9.80;;
79597;SDS011;69081;53.572;9.970;2023-09-12T10:29:52;12.48;;;9.50;;
79597;SDS011;69081;53.572;9.970;2023-09-12T10:32:23;12.30;;;8.70;;
79597;SDS011;69081;53.572;9.970;2023-09-12T10:34:53;11.48;;;9.60;;
79597;SDS011;69081;53.572;9.970;2023-09-12T10:37:22;11.77;;;9.18;;
79597;SDS011;69081;53.572;9.970;2023-09-12T10:39:50;13.07;;;9.85;;
79597;SDS011;69081;53.572;9.970;2023-09-12T10:42:21;12.55;;;9.30;;
79597;SDS011;69081;53.572;9.970;2023-09-12T10:44:50;12.15;;;9.15;;
79597;SDS011;69081;53.572;9.970;2023-09-12T10:47:18;12.15;;;9.02;;
79597;SDS011;69081;53.572;9.970;2023-09-12T10:49:48;10.77;;;8.60;;
79597;SDS011;69081;53.572;9.970;2023-09-12T10:52:23;9.70;;;8.27;;
79597;SDS011;69081;53.572;9.970;2023-09-12T10:54:52;10.20;;;8.98;;
79597;SDS011;69081;53.572;9.970;2023-09-12T10:57:21;10.65;;;8.73;;
79597;SDS011;69081;53.572;9.970;2023-09-12T11:02:37;10.02;;;7.93;;
79597;SDS011;69081;53.572;9.970;2023-09-12T11:05:34;10.93;;;8.57;;
79597;SDS011;69081;53.572;9.970;2023-09-12T11:08:05;10.23;;;8.20;;
79597;SDS011;69081;53.572;9.970;2023-09-12T11:10:33;11.18;;;8.68;;
79597;SDS011;69081;53.572;9.970;2023-09-12T11:13:03;9.90;;;7.35;;
79597;SDS011;69081;53.572;9.970;2023-09-12T11:15:31;9.60;;;7.50;;
79597;SDS011;69081;53.572;9.970;2023-09-12T11:18:01;10.98;;;8.45;;
79597;SDS011;69081;53.572;9.970;2023-09-12T11:20:49;11.65;;;8.27;;
79597;SDS011;69081;53.572;9.970;2023-09-12T11:23:19;8.98;;;7.10;;
79597;SDS011;69081;53.572;9.970;2023-09-12T11:25:48;9.82;;;8.13;;
79597;SDS011;69081;53.572;9.970;2023-09-12T11:28:16;9.10;;;7.05;;
79597;SDS011;69081;53.572;9.970;2023-09-12T11:30:56;9.43;;;7.55;;
79597;SDS011;69081;53.572;9.970;2023-09-12T11:33:25;13.18;;;8.85;;
79597;SDS011;69081;53.572;9.970;2023-09-12T11:35:55;8.15;;;6.85;;
79597;SDS011;69081;53.572;9.970;2023-09-12T11:38:27;9.95;;;7.65;;
79597;SDS011;69081;53.572;9.970;2023-09-12T11:40:57;8.98;;;7.38;;
79597;SDS011;69081;53.572;9.970;2023-09-12T11:43:26;9.50;;;7.47;;
79597;SDS011;69081;53.572;9.970;2023-09-12T11:45:56;9.20;;;7.15;;
79597;SDS011;69081;53.572;9.970;2023-09-12T11:48:24;9.50;;;7.65;;
79597;SDS011;69081;53.572;9.970;2023-09-12T11:50:53;9.05;;;6.82;;
79597;SDS011;69081;53.572;9.970;2023-09-12T11:53:24;7.97;;;6.53;;
79597;SDS011;69081;53.572;9.970;2023-09-12T11:55:53;8.43;;;6.60;;
79597;SDS011;69081;53.572;9.970;2023-09-12T11:58:23;8.15;;;6.60;;
79597;SDS011;69081;53.572;9.970;2023-09-12T12:00:54;8.48;;;7.00;;
79597;SDS011;69081;53.572;9.970;2023-09-12T12:03:24;7.63;;;6.35;;
79597;SDS011;69081;53.572;9.970;2023-09-12T12:05:55;8.00;;;6.55;;
79597;SDS011;69081;53.572;9.970;2023-09-12T12:08:24;8.40;;;7.20;;
79597;SDS011;69081;53.572;9.970;2023-09-12T12:10:58;7.88;;;6.45;;
79597;SDS011;69081;53.572;9.970;2023-09-12T12:13:27;8.05;;;6.18;;
79597;SDS011;69081;53.572;9.970;2023-09-12T12:15:56;6.88;;;6.05;;
79597;SDS011;69081;53.572;9.970;2023-09-12T12:18:24;8.23;;;6.32;;
79597;SDS011;69081;53.572;9.970;2023-09-12T12:20:53;7.97;;;6.13;;
79597;SDS011;69081;53.572;9.970;2023-09-12T12:23:22;7.35;;;5.90;;
79597;SDS011;69081;53.572;9.970;2023-09-12T12:25:50;12.00;;;6.53;;
79597;SDS011;69081;53.572;9.970;2023-09-12T12:28:18;7.72;;;6.15;;
79597;SDS011;69081;53.572;9.970;2023-09-12T12:30:49;6.70;;;5.95;;
79597;SDS011;69081;53.572;9.970;2023-09-12T12:33:18;7.97;;;5.95;;
79597;SDS011;69081;53.572;9.970;2023-09-12T12:35:46;8.70;;;6.95;;
79597;SDS011;69081;53.572;9.970;2023-09-12T12:38:20;7.18;;;5.90;;
79597;SDS011;69081;53.572;9.970;2023-09-12T12:40:49;6.88;;;5.30;;
79597;SDS011;69081;53.572;9.970;2023-09-12T12:43:17;7.13;;;5.53;;
79597;SDS011;69081;53.572;9.970;2023-09-12T12:45:53;7.00;;;6.10;;
79597;SDS011;69081;53.572;9.970;2023-09-12T12:51:14;6.70;;;5.55;;
79597;SDS011;69081;53.572;9.970;2023-09-12T12:53:44;7.00;;;5.78;;
79597;SDS011;69081;53.572;9.970;2023-09-12T12:56:18;9.43;;;6.82;;
79597;SDS011;69081;53.572;9.970;2023-09-12T12:58:48;7.10;;;5.72;;
79597;SDS011;69081;53.572;9.970;2023-09-12T13:01:16;9.80;;;5.70;;
79597;SDS011;69081;53.572;9.970;2023-09-12T13:03:45;9.43;;;6.90;;
79597;SDS011;69081;53.572;9.970;2023-09-12T13:06:13;7.47;;;6.13;;
79597;SDS011;69081;53.572;9.970;2023-09-12T13:08:42;8.00;;;5.40;;
79597;SDS011;69081;53.572;9.970;2023-09-12T13:11:12;6.35;;;5.25;;
79597;SDS011;69081;53.572;9.970;2023-09-12T13:13:45;6.65;;;5.50;;
79597;SDS011;69081;53.572;9.970;2023-09-12T13:16:14;6.93;;;5.82;;
79597;SDS011;69081;53.572;9.970;2023-09-12T13:18:43;6.78;;;5.50;;
79597;SDS011;69081;53.572;9.970;2023-09-12T13:21:11;7.80;;;5.93;;
79597;SDS011;69081;53.572;9.970;2023-09-12T13:23:39;5.85;;;5.07;;
79597;SDS011;69081;53.572;9.970;2023-09-12T13:28:36;5.63;;;4.72;;
79597;SDS011;69081;53.572;9.970;2023-09-12T13:31:06;7.18;;;5.90;;
79597;SDS011;69081;53.572;9.970;2023-09-12T13:33:35;6.68;;;5.85;;
79597;SDS011;69081;53.572;9.970;2023-09-12T13:36:03;6.65;;;5.32;;
79597;SDS011;69081;53.572;9.970;2023-09-12T13:40:59;5.72;;;5.10;;
79597;SDS011;69081;53.572;9.970;2023-09-12T13:43:27;6.85;;;5.28;;
79597;SDS011;69081;53.572;9.970;2023-09-12T13:45:55;6.60;;;5.13;;
79597;SDS011;69081;53.572;9.970;2023-09-12T13:48:25;6.72;;;5.22;;
79597;SDS011;69081;53.572;9.970;2023-09-12T13:50:53;7.20;;;5.35;;
79597;SDS011;69081;53.572;9.970;2023-09-12T13:53:21;6.60;;;5.40;;
79597;SDS011;69081;53.572;9.970;2023-09-12T13:55:49;6.82;;;5.10;;
79597;SDS011;69081;53.572;9.970;2023-09-12T13:58:25;6.40;;;4.95;;
79597;SDS011;69081;53.572;9.970;2023-09-12T14:03:37;7.00;;;5.35;;
79597;SDS011;69081;53.572;9.970;2023-09-12T14:06:06;6.15;;;5.10;;
79597;SDS011;69081;53.572;9.970;2023-09-12T14:08:35;6.55;;;5.00;;
79597;SDS011;69081;53.572;9.970;2023-09-12T14:11:03;6.00;;;4.65;;
79597;SDS011;69081;53.572;9.970;2023-09-12T14:16:06;5.15;;;4.32;;
79597;SDS011;69081;53.572;9.970;2023-09-12T14:18:34;5.97;;;5.22;;
79597;SDS011;69081;53.572;9.970;2023-09-12T14:21:04;6.20;;;5.18;;
79597;SDS011;69081;53.572;9.970;2023-09-12T14:23:33;5.55;;;4.82;;
79597;SDS011;69081;53.572;9.970;2023-09-12T14:26:02;7.18;;;5.35;;
79597;SDS011;69081;53.572;9.970;2023-09-12T14:31:01;5.45;;;4.35;;
79597;SDS011;69081;53.572;9.970;2023-09-12T14:33:30;5.45;;;4.72;;
79597;SDS011;69081;53.572;9.970;2023-09-12T14:35:59;6.13;;;5.35;;
79597;SDS011;69081;53.572;9.970;2023-09-12T14:38:29;8.75;;;5.70;;
79597;SDS011;69081;53.572;9.970;2023-09-12T14:40:57;6.28;;;5.55;;
79597;SDS011;69081;53.572;9.970;2023-09-12T14:43:25;6.78;;;5.60;;
79597;SDS011;69081;53.572;9.970;2023-09-12T14:45:54;6.53;;;5.50;;
79597;SDS011;69081;53.572;9.970;2023-09-12T14:48:23;5.47;;;4.85;;
79597;SDS011;69081;53.572;9.970;2023-09-12T14:50:51;6.40;;;4.90;;
79597;SDS011;69081;53.572;9.970;2023-09-12T14:53:19;6.10;;;4.90;;
79597;SDS011;69081;53.572;9.970;2023-09-12T14:55:48;8.50;;;4.60;;
79597;SDS011;69081;53.572;9.970;2023-09-12T14:58:16;7.72;;;5.78;;
79597;SDS011;69081;53.572;9.970;2023-09-12T15:00:44;5.65;;;4.93;;
79597;SDS011;69081;53.572;9.970;2023-09-12T15:03:13;6.97;;;4.63;;
79597;SDS011;69081;53.572;9.970;2023-09-12T15:05:41;7.00;;;5.22;;
79597;SDS011;69081;53.572;9.970;2023-09-12T15:08:09;9.32;;;5.90;;
79597;SDS011;69081;53.572;9.970;2023-09-12T15:10:38;6.90;;;5.07;;
79597;SDS011;69081;53.572;9.970;2023-09-12T15:13:07;7.03;;;5.78;;
79597;SDS011;69081;53.572;9.970;2023-09-12T15:15:36;7.18;;;5.30;;
79597;SDS011;69081;53.572;9.970;2023-09-12T15:18:05;8.02;;;5.22;;
79597;SDS011;69081;53.572;9.970;2023-09-12T15:20:33;6.47;;;5.22;;
79597;SDS011;69081;53.572;9.970;2023-09-12T15:23:01;6.13;;;4.85;;